Time;durP1;ratioP1;P1;durP2;ratioP2;P2;SDS_P1;SDS_P2;PMS_P1;PMS_P2;Temp;Humidity;BMP_temperature;BMP_pressure;BME280_temperature;BME280_humidity;BME280_pressure;Samples;Min_cycle;Max_cycle;Signal;HPM_P1;HPM_P2
2023/04/24 00:00:12;;;;;;;;;5.25;4.25;;;;;11.39;61.54;100273.75;5074530;27;46303;-70
2023/04/24 00:02:38;;;;;;;;;5.00;4.00;;;;;11.37;61.77;100272.03;5058967;27;45410;-70
2023/04/24 00:05:05;;;;;;;;;5.00;5.00;;;;;11.35;61.58;100266.81;5057943;27;45554;-70
2023/04/24 00:07:31;;;;;;;;;6.00;4.75;;;;;11.41;61.43;100279.88;5063674;28;45338;-69
2023/04/24 00:09:56;;;;;;;;;6.75;4.50;;;;;11.37;61.85;100285.16;5074703;28;47062;-69
2023/04/24 00:12:22;;;;;;;;;3.50;3.50;;;;;11.38;61.67;100292.13;5074677;27;45561;-71
2023/04/24 00:14:47;;;;;;;;;4.25;3.00;;;;;11.40;61.66;100288.59;5076027;28;45451;-71
2023/04/24 00:17:13;;;;;;;;;5.25;4.00;;;;;11.24;61.89;100272.13;5077880;27;45366;-71
2023/04/24 00:19:39;;;;;;;;;5.00;5.00;;;;;11.38;61.76;100303.47;5094106;27;47368;-72
2023/04/24 00:22:05;;;;;;;;;5.00;4.00;;;;;11.29;61.89;100295.69;5078005;27;45403;-71
2023/04/24 00:24:30;;;;;;;;;4.00;4.00;;;;;11.26;62.03;100298.34;5075471;28;45359;-70
2023/04/24 00:26:56;;;;;;;;;7.25;5.00;;;;;11.29;62.35;100305.31;5077156;27;45386;-71
2023/04/24 00:29:22;;;;;;;;;5.00;4.25;;;;;11.31;62.41;100319.28;5076307;27;45295;-72
2023/04/24 00:31:47;;;;;;;;;3.25;3.25;;;;;11.28;62.27;100319.31;5074414;27;45526;-72
2023/04/24 00:34:13;;;;;;;;;6.75;5.00;;;;;11.29;62.83;100324.50;5075499;27;45448;-71
2023/04/24 00:36:39;;;;;;;;;4.00;4.00;;;;;11.28;62.52;100329.78;5091811;27;45433;-71
2023/04/24 00:39:04;;;;;;;;;6.00;5.00;;;;;11.19;62.80;100315.00;5089207;27;45895;-70
2023/04/24 00:41:30;;;;;;;;;4.50;4.00;;;;;11.19;62.97;100320.22;5063903;28;45474;-71
2023/04/24 00:43:56;;;;;;;;;6.75;5.00;;;;;11.19;62.79;100325.47;5060807;28;45794;-71
2023/04/24 00:46:22;;;;;;;;;4.75;4.75;;;;;11.17;62.72;100322.84;5105663;27;45592;-72
2023/04/24 00:48:47;;;;;;;;;4.00;4.00;;;;;11.21;62.37;100328.97;5078628;27;45547;-70
2023/04/24 00:51:13;;;;;;;;;4.75;4.00;;;;;11.23;62.21;100317.56;5062887;27;45462;-71
2023/04/24 00:53:39;;;;;;;;;5.75;4.50;;;;;11.21;62.20;100323.72;5074468;28;45354;-69
2023/04/24 00:56:18;;;;;;;;;4.75;4.00;;;;;11.13;62.51;100325.50;5070810;27;45647;-70
2023/04/24 00:58:44;;;;;;;;;7.25;5.00;;;;;11.20;62.57;100343.81;5073745;27;46365;-70
2023/04/24 01:01:11;;;;;;;;;7.25;4.00;;;;;11.12;62.79;100329.88;5073693;27;45437;-71
2023/04/24 01:03:40;;;;;;;;;6.00;4.00;;;;;11.13;62.76;100336.88;5078162;28;45562;-71
2023/04/24 01:06:06;;;;;;;;;4.50;4.00;;;;;11.08;62.55;100332.53;5076624;27;45492;-70
2023/04/24 01:08:34;;;;;;;;;3.50;3.50;;;;;11.04;62.89;100335.19;5073615;27;45800;-70
2023/04/24 01:11:03;;;;;;;;;7.00;3.00;;;;;11.04;62.77;100344.81;5073992;27;45567;-72
2023/04/24 01:13:29;;;;;;;;;5.00;5.00;;;;;10.91;62.94;100330.88;5074159;27;45401;-70
2023/04/24 01:16:20;;;;;;;;;4.00;3.00;;;;;10.96;62.92;100342.22;5077445;27;45499;-71
2023/04/24 01:18:48;;;;;;;;;5.00;3.75;;;;;10.95;62.94;100335.22;5068361;27;46048;-70
2023/04/24 01:21:18;;;;;;;;;4.00;4.00;;;;;10.96;62.60;100320.38;5061805;27;45618;-70
2023/04/24 01:23:47;;;;;;;;;3.50;3.50;;;;;11.04;62.55;100339.56;5053508;28;45494;-72
2023/04/24 01:26:19;;;;;;;;;3.00;3.00;;;;;11.08;62.66;100337.78;5053077;27;45634;-71
2023/04/24 01:28:46;;;;;;;;;4.25;4.25;;;;;11.00;62.71;100303.75;5072632;27;47763;-71
2023/04/24 01:31:11;;;;;;;;;6.75;4.75;;;;;11.01;62.83;100322.09;5056541;28;45533;-72
2023/04/24 01:33:37;;;;;;;;;4.25;4.25;;;;;11.13;63.01;100343.84;5058014;28;46695;-69
2023/04/24 01:36:03;;;;;;;;;4.00;4.00;;;;;11.16;62.63;100343.84;5072190;27;45519;-70
2023/04/24 01:38:29;;;;;;;;;4.25;4.00;;;;;11.13;62.93;100341.22;5073382;27;46713;-71
2023/04/24 01:40:54;;;;;;;;;3.25;3.25;;;;;11.15;62.68;100356.09;5070832;27;45284;-70
2023/04/24 01:43:20;;;;;;;;;5.75;4.75;;;;;11.11;62.40;100328.16;5070012;28;45404;-71
2023/04/24 01:45:45;;;;;;;;;5.00;5.00;;;;;11.12;62.65;100339.50;5065178;28;45607;-71
2023/04/24 01:48:12;;;;;;;;;5.50;4.00;;;;;11.20;62.46;100361.28;5070131;28;46013;-71
2023/04/24 01:50:38;;;;;;;;;4.00;4.00;;;;;11.24;62.57;100370.88;5072986;28;45491;-70
2023/04/24 01:53:04;;;;;;;;;4.00;3.25;;;;;11.19;62.57;100356.94;5072216;28;45583;-71
2023/04/24 01:55:30;;;;;;;;;5.00;5.00;;;;;11.20;62.55;100348.16;5071089;28;45454;-70
2023/04/24 01:58:07;;;;;;;;;5.25;3.75;;;;;11.24;62.03;100363.00;5066512;28;45404;-73
2023/04/24 02:00:33;;;;;;;;;4.75;4.75;;;;;11.23;62.66;100369.16;5105814;27;45348;-70
2023/04/24 02:02:58;;;;;;;;;5.75;4.00;;;;;11.24;62.10;100368.25;5076028;27;45469;-71
2023/04/24 02:05:24;;;;;;;;;6.75;4.00;;;;;11.24;62.22;100378.75;5074324;27;45725;-71
2023/04/24 02:07:50;;;;;;;;;7.25;3.50;;;;;11.16;62.09;100362.19;5073047;28;45333;-70
2023/04/24 02:10:15;;;;;;;;;5.00;4.00;;;;;11.19;62.34;100368.28;5070847;28;46153;-70
2023/04/24 02:12:41;;;;;;;;;3.00;3.00;;;;;11.22;62.25;100381.38;5061143;28;45461;-70
2023/04/24 02:15:07;;;;;;;;;4.50;4.00;;;;;11.17;62.15;100363.94;5072920;28;45616;-71
2023/04/24 02:17:32;;;;;;;;;4.50;3.00;;;;;11.17;62.51;100371.78;5074984;28;45367;-71
2023/04/24 02:19:58;;;;;;;;;5.00;4.25;;;;;11.16;62.09;100368.31;5077129;28;45391;-71
2023/04/24 02:22:23;;;;;;;;;5.50;4.00;;;;;11.15;62.63;100377.06;5077233;28;45483;-71
2023/04/24 02:24:49;;;;;;;;;4.25;4.00;;;;;11.21;62.38;100384.00;5076856;27;45708;-71
2023/04/24 02:27:15;;;;;;;;;3.75;3.75;;;;;11.22;62.33;100394.50;5072269;28;45555;-70
2023/04/24 02:29:40;;;;;;;;;6.50;3.25;;;;;11.12;62.36;100381.44;5071169;28;45767;-70
2023/04/24 02:32:06;;;;;;;;;4.50;3.00;;;;;11.06;62.46;100371.88;5075234;28;45466;-71
2023/04/24 02:34:32;;;;;;;;;4.00;4.00;;;;;11.18;62.28;100391.91;5077466;27;45453;-70
2023/04/24 02:36:57;;;;;;;;;3.75;3.75;;;;;11.17;62.74;100380.53;5073626;28;45882;-71
2023/04/24 02:39:23;;;;;;;;;3.50;3.00;;;;;11.12;62.43;100384.06;5071456;28;45454;-69
2023/04/24 02:41:49;;;;;;;;;5.00;3.25;;;;;11.25;62.29;100404.09;5073468;28;45324;-70
2023/04/24 02:44:14;;;;;;;;;5.50;4.75;;;;;11.22;62.52;100398.84;5092054;27;45542;-71
2023/04/24 02:46:41;;;;;;;;;5.00;4.00;;;;;11.19;62.31;100389.25;5065509;27;45979;-72
2023/04/24 02:49:07;;;;;;;;;4.00;3.50;;;;;11.23;62.46;100400.59;5067027;27;45310;-71
2023/04/24 02:51:33;;;;;;;;;4.75;3.25;;;;;11.13;62.88;100373.56;5064501;28;46593;-69
2023/04/24 02:53:58;;;;;;;;;3.75;3.75;;;;;11.24;62.85;100407.56;5071567;27;45291;-70
2023/04/24 02:56:24;;;;;;;;;4.50;4.00;;;;;11.20;62.38;100406.75;5058611;27;45449;-70
2023/04/24 02:58:49;;;;;;;;;2.25;2.25;;;;;11.18;62.71;100402.38;5059713;27;45528;-71
2023/04/24 03:01:15;;;;;;;;;4.50;3.00;;;;;11.16;62.48;100404.13;5059766;27;45505;-69
2023/04/24 03:03:40;;;;;;;;;4.00;4.00;;;;;11.22;62.71;100411.94;5072350;27;45590;-70
2023/04/24 03:06:07;;;;;;;;;4.50;3.00;;;;;11.20;62.83;100408.47;5075889;27;45979;-71
2023/04/24 03:08:33;;;;;;;;;5.00;4.75;;;;;11.26;63.05;100421.56;5073494;27;45397;-69
2023/04/24 03:10:59;;;;;;;;;4.50;4.25;;;;;11.27;62.87;100425.03;5065045;28;45445;-70
2023/04/24 03:13:26;;;;;;;;;6.00;3.00;;;;;11.28;62.72;100432.03;5067371;27;45506;-71
2023/04/24 03:15:51;;;;;;;;;6.00;5.25;;;;;11.22;63.03;100419.81;5055289;27;45946;-71
2023/04/24 03:18:17;;;;;;;;;4.00;4.00;;;;;11.21;62.98;100416.31;5054715;27;45360;-70
2023/04/24 03:20:46;;;;;;;;;3.00;2.00;;;;;11.27;62.36;100431.16;5055556;27;45417;-69
2023/04/24 03:23:11;;;;;;;;;3.00;3.00;;;;;11.23;62.65;100418.94;5059949;27;45547;-70
2023/04/24 03:25:37;;;;;;;;;6.50;2.00;;;;;11.31;62.49;100426.75;5058643;27;46295;-70
2023/04/24 03:28:03;;;;;;;;;6.00;4.00;;;;;11.24;62.40;100412.81;5060185;27;45508;-71
2023/04/24 03:30:28;;;;;;;;;2.75;2.75;;;;;11.30;62.36;100433.78;5062059;27;45390;-70
2023/04/24 03:32:54;;;;;;;;;4.00;4.00;;;;;11.18;62.63;100411.13;5066541;27;45326;-69
2023/04/24 03:35:23;;;;;;;;;6.50;3.75;;;;;11.30;62.57;100428.53;5063417;27;46599;-70
2023/04/24 03:37:48;;;;;;;;;4.00;4.00;;;;;11.23;62.52;100427.69;5062953;27;45501;-70
2023/04/24 03:40:14;;;;;;;;;5.00;2.50;;;;;11.18;62.57;100426.84;5064441;28;45401;-69
2023/04/24 03:42:44;;;;;;;;;4.00;4.00;;;;;11.15;62.31;100412.88;5062570;27;45918;-71
2023/04/24 03:45:10;;;;;;;;;5.50;3.00;;;;;11.19;62.54;100425.94;5068995;27;46776;-71
2023/04/24 03:47:35;;;;;;;;;6.00;3.25;;;;;11.18;62.56;100434.72;5058271;27;45539;-70
2023/04/24 03:50:01;;;;;;;;;6.50;3.75;;;;;11.11;62.98;100416.41;5055529;28;45611;-68
2023/04/24 03:52:27;;;;;;;;;3.50;3.00;;;;;11.18;62.88;100429.47;5057839;28;45937;-69
2023/04/24 03:54:53;;;;;;;;;4.00;4.00;;;;;11.14;62.90;100432.09;5054549;27;46506;-70
2023/04/24 03:57:20;;;;;;;;;4.00;3.00;;;;;11.13;63.04;100431.25;5065465;27;45968;-70
2023/04/24 03:59:46;;;;;;;;;6.00;3.75;;;;;11.19;62.75;100449.53;5056909;27;45587;-70
2023/04/24 04:02:11;;;;;;;;;5.00;4.00;;;;;11.15;63.18;100444.31;5073974;27;45487;-70
2023/04/24 04:04:37;;;;;;;;;5.75;4.00;;;;;11.12;62.72;100437.34;5059933;27;46148;-70
2023/04/24 04:07:02;;;;;;;;;4.25;3.50;;;;;11.22;62.91;100467.91;5054838;27;45532;-69
2023/04/24 04:09:28;;;;;;;;;3.50;3.50;;;;;11.18;63.27;100452.19;5057577;27;45472;-70
2023/04/24 04:11:55;;;;;;;;;5.00;4.00;;;;;11.23;63.01;100461.75;5058561;27;45718;-70
2023/04/24 04:14:21;;;;;;;;;6.75;5.00;;;;;11.17;63.28;100453.91;5053747;28;46516;-70
2023/04/24 04:16:47;;;;;;;;;6.00;5.00;;;;;11.17;63.01;100459.16;5057756;27;45466;-69
2023/04/24 04:19:12;;;;;;;;;5.75;4.00;;;;;11.19;63.72;100467.03;5062931;28;45636;-70
2023/04/24 04:21:38;;;;;;;;;4.00;4.00;;;;;11.10;63.32;100459.19;5058133;28;45582;-70
2023/04/24 04:24:05;;;;;;;;;4.50;4.50;;;;;11.17;63.20;100479.25;5061648;28;48112;-68
2023/04/24 04:26:32;;;;;;;;;7.00;5.00;;;;;11.10;63.05;100467.06;5054344;28;45617;-70
2023/04/24 04:29:00;;;;;;;;;3.75;3.75;;;;;11.01;63.28;100461.00;5054711;27;45563;-70
2023/04/24 04:31:26;;;;;;;;;5.25;5.25;;;;;11.10;63.64;100482.78;5054133;28;45583;-71
2023/04/24 04:33:51;;;;;;;;;4.25;4.00;;;;;11.00;63.80;100464.47;5053497;27;46232;-70
2023/04/24 04:36:17;;;;;;;;;4.00;4.00;;;;;11.14;63.91;100492.41;5052603;27;45628;-70
2023/04/24 04:38:44;;;;;;;;;6.25;5.00;;;;;10.96;63.60;100461.88;5057830;28;45505;-70
2023/04/24 04:41:10;;;;;;;;;5.50;5.00;;;;;11.10;63.57;100478.41;5054705;27;45893;-69
2023/04/24 04:43:36;;;;;;;;;6.00;4.00;;;;;11.14;63.58;100487.16;5063145;28;46558;-70
2023/04/24 04:46:03;;;;;;;;;7.50;4.25;;;;;11.18;63.46;100500.25;5073624;28;45450;-70
2023/04/24 04:48:31;;;;;;;;;4.75;3.25;;;;;11.07;63.54;100482.81;5077794;28;46880;-70
2023/04/24 04:50:57;;;;;;;;;9.25;7.00;;;;;11.09;63.37;100494.16;5074785;28;45719;-70
2023/04/24 04:53:22;;;;;;;;;9.25;4.00;;;;;11.09;63.67;100500.28;5074843;28;45376;-70
2023/04/24 04:55:48;;;;;;;;;7.25;6.00;;;;;11.07;63.89;100499.41;5074569;28;45307;-70
2023/04/24 04:58:13;;;;;;;;;10.75;5.25;;;;;11.00;63.62;100490.69;5074012;27;45284;-70
2023/04/24 05:00:39;;;;;;;;;5.00;4.50;;;;;11.06;64.10;100510.78;5072959;28;45362;-70
2023/04/24 05:03:05;;;;;;;;;4.00;4.00;;;;;11.09;63.71;100515.13;5073470;27;45483;-70
2023/04/24 05:05:31;;;;;;;;;5.25;4.00;;;;;11.11;64.26;100516.00;5077253;28;45540;-70
2023/04/24 05:07:56;;;;;;;;;4.00;4.00;;;;;11.10;64.30;100519.50;5078052;28;45440;-72
2023/04/24 05:10:22;;;;;;;;;9.00;6.00;;;;;11.11;63.84;100514.25;5077670;28;45488;-71
2023/04/24 05:12:49;;;;;;;;;5.75;5.50;;;;;11.12;63.76;100530.84;5075038;28;45936;-70
2023/04/24 05:15:15;;;;;;;;;8.75;5.50;;;;;11.12;63.79;100529.09;5073532;28;45520;-70
2023/04/24 05:17:40;;;;;;;;;11.25;6.50;;;;;11.08;64.38;100537.84;5089367;27;45401;-70
2023/04/24 05:20:07;;;;;;;;;8.75;5.75;;;;;10.93;63.80;100506.44;5073730;28;45344;-70
2023/04/24 05:22:32;;;;;;;;;9.00;4.50;;;;;11.07;64.10;100549.19;5073721;28;46155;-71
2023/04/24 05:24:58;;;;;;;;;5.75;5.25;;;;;11.03;64.43;100545.75;5073572;27;45314;-70
2023/04/24 05:27:24;;;;;;;;;9.50;7.25;;;;;11.04;64.20;100551.84;5089254;27;45384;-71
2023/04/24 05:29:50;;;;;;;;;7.00;7.00;;;;;11.16;63.95;100564.03;5089669;27;45547;-69
2023/04/24 05:32:15;;;;;;;;;6.50;5.00;;;;;11.07;64.11;100550.97;5109795;27;47687;-70
2023/04/24 05:34:41;;;;;;;;;8.25;8.25;;;;;11.14;63.96;100561.41;5089464;27;45421;-70
2023/04/24 05:37:09;;;;;;;;;7.00;5.50;;;;;11.21;64.27;100575.38;5072066;28;45587;-69
2023/04/24 05:39:35;;;;;;;;;7.75;6.00;;;;;11.23;63.93;100569.25;5074019;27;45679;-69
2023/04/24 05:42:01;;;;;;;;;7.50;6.50;;;;;11.20;63.85;100565.75;5075845;28;46445;-70
2023/04/24 05:44:27;;;;;;;;;7.75;6.75;;;;;11.33;63.62;100590.19;5073972;28;45349;-70
2023/04/24 05:46:53;;;;;;;;;9.75;9.50;;;;;11.32;64.05;100584.09;5073688;28;45496;-70
2023/04/24 05:49:18;;;;;;;;;8.75;6.75;;;;;11.36;63.83;100582.31;5090041;27;45918;-70
2023/04/24 05:51:44;;;;;;;;;10.00;8.25;;;;;11.31;64.30;100584.94;5077797;28;45313;-70
2023/04/24 05:54:12;;;;;;;;;10.25;6.75;;;;;11.39;64.22;100592.78;5077793;28;45419;-70
2023/04/24 05:56:38;;;;;;;;;9.00;8.25;;;;;11.30;63.75;100595.47;5073021;28;45923;-71
2023/04/24 05:59:04;;;;;;;;;10.00;8.25;;;;;11.31;63.84;100584.09;5073392;28;45818;-70
2023/04/24 06:01:31;;;;;;;;;7.00;6.50;;;;;11.37;63.65;100599.81;5075331;27;46812;-70
2023/04/24 06:03:57;;;;;;;;;11.00;7.75;;;;;11.36;64.00;100601.53;5053018;27;45354;-70
2023/04/24 06:06:24;;;;;;;;;9.50;7.25;;;;;11.39;64.28;100606.78;5052939;27;45425;-70
2023/04/24 06:08:49;;;;;;;;;8.00;7.50;;;;;11.36;63.79;100598.91;5052989;28;45901;-69
2023/04/24 06:11:15;;;;;;;;;9.75;9.25;;;;;11.55;63.96;100627.69;5062838;28;47638;-70
2023/04/24 06:13:40;;;;;;;;;13.75;9.50;;;;;11.48;63.81;100621.59;5056924;27;45753;-70
2023/04/24 06:16:06;;;;;;;;;9.25;7.50;;;;;11.43;63.94;100615.50;5057063;28;45525;-70
2023/04/24 06:18:31;;;;;;;;;9.50;7.75;;;;;11.50;64.16;100632.09;5055909;27;45775;-69
2023/04/24 06:20:57;;;;;;;;;10.25;7.50;;;;;11.33;63.54;100605.94;5061560;27;46227;-70
2023/04/24 06:23:23;;;;;;;;;10.50;9.75;;;;;11.57;64.09;100645.19;5065015;27;45453;-69
2023/04/24 06:25:49;;;;;;;;;9.50;9.50;;;;;11.44;63.95;100620.75;5060149;27;45522;-70
2023/04/24 06:28:15;;;;;;;;;11.75;11.25;;;;;11.51;64.05;100645.22;5060066;27;45541;-70
2023/04/24 06:30:41;;;;;;;;;11.00;11.00;;;;;11.52;64.24;100659.19;5054974;27;45397;-71
2023/04/24 06:33:07;;;;;;;;;11.50;9.50;;;;;11.55;63.89;100662.66;5087962;27;45482;-71
2023/04/24 06:35:32;;;;;;;;;11.00;10.00;;;;;11.53;64.16;100643.47;5055986;27;45650;-69
2023/04/24 06:37:57;;;;;;;;;11.50;9.75;;;;;11.63;64.83;100655.66;5054796;27;46077;-71
2023/04/24 06:40:24;;;;;;;;;9.50;9.50;;;;;11.71;64.89;100660.00;5055433;27;45975;-71
2023/04/24 06:42:49;;;;;;;;;11.00;10.50;;;;;11.72;63.95;100651.25;5055262;27;45951;-70
2023/04/24 06:45:15;;;;;;;;;11.75;11.25;;;;;11.75;63.43;100659.13;5097104;27;45756;-69
2023/04/24 06:47:41;;;;;;;;;12.00;12.00;;;;;11.90;69.86;100682.69;5078885;28;45548;-71
2023/04/24 06:50:07;;;;;;;;;10.50;10.50;;;;;11.96;64.50;100656.44;5108715;27;46872;-71
2023/04/24 06:52:32;;;;;;;;;12.25;9.50;;;;;12.11;63.14;100670.34;5074200;28;45539;-71
2023/04/24 06:55:02;;;;;;;;;11.00;8.00;;;;;12.22;62.84;100674.66;5075671;27;45487;-71
2023/04/24 06:57:28;;;;;;;;;13.25;11.50;;;;;12.19;62.56;100673.81;5079850;27;45299;-69
2023/04/24 06:59:54;;;;;;;;;12.25;11.25;;;;;12.28;62.57;100674.63;5090788;27;46825;-71
2023/04/24 07:02:20;;;;;;;;;15.50;9.00;;;;;12.38;63.39;100671.94;5075841;27;45798;-70
2023/04/24 07:04:47;;;;;;;;;15.25;12.25;;;;;12.65;68.66;100671.75;5075777;28;45439;-72
2023/04/24 07:07:14;;;;;;;;;13.50;11.50;;;;;12.92;64.81;100662.75;5077065;28;45456;-71
2023/04/24 07:09:44;;;;;;;;;13.00;10.25;;;;;13.18;62.74;100671.31;5078683;28;46585;-70
2023/04/24 07:12:13;;;;;;;;;15.75;12.25;;;;;13.15;60.88;100659.06;5078579;28;45992;-74
2023/04/24 07:14:39;;;;;;;;;16.00;12.25;;;;;13.16;60.55;100666.06;5075482;27;45310;-72
2023/04/24 07:17:06;;;;;;;;;11.75;10.00;;;;;13.16;60.48;100669.53;5074087;28;45559;-70
2023/04/24 07:19:33;;;;;;;;;12.75;11.25;;;;;13.30;59.78;100682.59;5075160;27;46456;-70
2023/04/24 07:21:59;;;;;;;;;21.75;11.00;;;;;13.36;59.43;100669.41;5077905;28;45456;-70
2023/04/24 07:24:25;;;;;;;;;15.25;11.75;;;;;13.29;58.85;100659.81;5080068;27;45629;-69
2023/04/24 07:26:52;;;;;;;;;15.25;14.00;;;;;13.38;59.44;100674.63;5075640;27;45712;-70
2023/04/24 07:29:18;;;;;;;;;16.25;15.00;;;;;13.28;59.89;100673.84;5066697;27;46601;-68
2023/04/24 07:31:43;;;;;;;;;18.75;14.00;;;;;13.07;59.29;100658.25;5068593;28;45854;-70
2023/04/24 07:34:09;;;;;;;;;14.50;11.50;;;;;13.19;61.81;100679.16;5074975;28;45551;-70
2023/04/24 07:36:35;;;;;;;;;16.50;14.50;;;;;13.13;59.31;100685.38;5108084;27;45345;-69
2023/04/24 07:39:01;;;;;;;;;19.00;13.75;;;;;12.96;59.21;100675.91;5074696;27;45455;-70
2023/04/24 07:41:27;;;;;;;;;17.00;15.00;;;;;12.89;59.63;100689.09;5062172;27;45649;-69
2023/04/24 07:43:53;;;;;;;;;12.50;12.50;;;;;12.85;59.89;100686.50;5059255;27;45362;-70
2023/04/24 07:46:20;;;;;;;;;13.75;13.75;;;;;12.88;59.62;100687.34;5075870;28;45157;-74
2023/04/24 07:48:47;;;;;;;;;15.00;11.75;;;;;12.86;60.05;100704.88;5074610;27;46390;-72
2023/04/24 07:51:14;;;;;;;;;17.25;15.50;;;;;12.76;60.18;100704.94;5073305;28;45423;-71
2023/04/24 07:53:40;;;;;;;;;15.75;15.00;;;;;12.62;60.29;100690.16;5075030;28;45672;-71
2023/04/24 07:56:05;;;;;;;;;21.25;16.50;;;;;12.62;60.40;100705.91;5065252;27;45472;-71
2023/04/24 07:58:31;;;;;;;;;15.00;13.50;;;;;12.52;60.69;100698.97;5062673;27;45565;-71
2023/04/24 08:00:57;;;;;;;;;16.00;15.25;;;;;12.55;60.68;100701.59;5056889;27;45550;-68
2023/04/24 08:03:23;;;;;;;;;18.00;16.00;;;;;12.51;60.67;100708.63;5073526;27;45390;-72
2023/04/24 08:05:50;;;;;;;;;17.00;14.75;;;;;12.44;60.60;100703.44;5057115;28;45409;-75
2023/04/24 08:08:16;;;;;;;;;15.00;13.00;;;;;12.43;60.73;100704.28;5054756;27;45452;-73
2023/04/24 08:10:42;;;;;;;;;18.25;14.50;;;;;12.35;61.74;100701.72;5056211;28;45556;-70
2023/04/24 08:13:07;;;;;;;;;18.00;14.25;;;;;12.41;61.65;100724.44;5053766;27;45733;-73
2023/04/24 08:15:33;;;;;;;;;22.75;16.75;;;;;12.33;61.60;100710.50;5058953;27;45528;-72
2023/04/24 08:17:58;;;;;;;;;22.50;16.25;;;;;12.37;61.01;100717.47;5058446;27;45517;-68
2023/04/24 08:20:24;;;;;;;;;15.25;13.00;;;;;12.54;61.30;100736.63;5055273;27;46283;-71
2023/04/24 08:22:50;;;;;;;;;3.25;0.00;;;;;12.67;60.88;100735.69;5053986;27;45513;-70
2023/04/24 08:25:15;;;;;;;;;19.50;15.00;;;;;12.79;60.68;100740.00;5052611;27;45510;-73
2023/04/24 08:27:41;;;;;;;;;15.50;13.75;;;;;12.82;60.84;100726.81;5054087;28;46829;-72
2023/04/24 08:30:07;;;;;;;;;18.75;12.75;;;;;13.04;59.97;100742.41;5053627;27;45727;-71
2023/04/24 08:32:33;;;;;;;;;16.75;14.00;;;;;13.17;60.07;100723.03;5054882;27;45415;-71
2023/04/24 08:34:59;;;;;;;;;17.50;14.50;;;;;13.45;59.07;100710.50;5070017;27;45715;-70
2023/04/24 08:37:26;;;;;;;;;20.25;15.50;;;;;13.66;58.54;100714.66;5064298;27;48499;-68
2023/04/24 08:39:52;;;;;;;;;27.75;19.75;;;;;13.78;57.43;100711.03;5055940;28;45608;-73
2023/04/24 08:42:19;;;;;;;;;17.75;15.50;;;;;14.04;57.07;100723.88;5057919;27;45525;-73
2023/04/24 08:44:45;;;;;;;;;25.50;16.00;;;;;14.16;59.21;100699.16;5055946;28;45376;-70
2023/04/24 08:47:12;;;;;;;;;20.75;11.25;;;;;14.57;57.99;100729.38;5053495;27;45642;-68
2023/04/24 08:49:39;;;;;;;;;16.50;13.75;;;;;14.57;55.79;100713.56;5052442;27;45452;-68
2023/04/24 08:52:05;;;;;;;;;18.50;15.25;;;;;14.68;55.38;100726.56;5056809;28;45698;-68
2023/04/24 08:54:34;;;;;;;;;16.00;13.75;;;;;14.69;55.42;100730.94;5054009;27;45560;-74
2023/04/24 08:57:01;;;;;;;;;16.75;16.00;;;;;14.71;54.59;100732.69;5057440;27;46128;-71
2023/04/24 08:59:28;;;;;;;;;21.75;19.00;;;;;14.69;54.63;100723.91;5065509;27;46746;-74
2023/04/24 09:02:07;;;;;;;;;18.00;16.75;;;;;14.81;54.81;100730.75;5055316;28;45467;-73
2023/04/24 09:04:33;;;;;;;;;23.50;16.50;;;;;14.88;54.34;100729.78;5060050;27;45624;-72
2023/04/24 09:06:59;;;;;;;;;17.25;15.75;;;;;14.91;54.53;100724.44;5065919;27;46262;-71
2023/04/24 09:09:25;;;;;;;;;12.75;12.75;;;;;14.99;53.68;100709.34;5062367;28;45542;-72
2023/04/24 09:11:55;;;;;;;;;18.25;16.25;;;;;15.13;54.32;100722.31;5054237;27;45882;-69
2023/04/24 09:14:21;;;;;;;;;24.50;18.50;;;;;15.22;53.85;100735.34;5056440;27;45454;-69
2023/04/24 09:16:47;;;;;;;;;19.75;15.00;;;;;15.17;53.08;100726.66;5051863;27;46850;-69
2023/04/24 09:19:13;;;;;;;;;14.25;9.75;;;;;15.18;53.18;100732.78;5051969;28;45851;-68
2023/04/24 09:21:40;;;;;;;;;19.50;17.75;;;;;15.04;53.11;100741.81;5055947;27;45772;-70
2023/04/24 09:24:20;;;;;;;;;18.25;16.75;;;;;14.90;53.83;100735.00;5054017;28;45397;-72
2023/04/24 09:26:46;;;;;;;;;24.00;17.00;;;;;14.76;53.59;100730.84;5054549;27;46245;-68
2023/04/24 09:29:18;;;;;;;;;18.25;16.50;;;;;14.61;53.82;100745.09;5054054;28;45418;-70
2023/04/24 09:31:45;;;;;;;;;13.50;11.25;;;;;14.54;53.96;100742.56;5059430;28;45417;-69
2023/04/24 09:34:11;;;;;;;;;16.67;14.33;;;;;14.48;54.47;100740.88;5057485;27;45497;-69
2023/04/24 09:36:39;;;;;;;;;14.50;12.25;;;;;14.58;54.00;100753.06;5059933;28;45948;-69
2023/04/24 09:39:13;;;;;;;;;16.00;15.75;;;;;14.62;53.97;100756.53;5075297;27;45461;-68
2023/04/24 09:41:46;;;;;;;;;12.50;11.50;;;;;14.68;54.04;100756.41;5073755;27;45439;-68
2023/04/24 09:44:22;;;;;;;;;18.00;15.50;;;;;14.73;53.40;100762.50;5053541;27;45524;-69
2023/04/24 09:46:54;;;;;;;;;17.25;13.25;;;;;14.75;53.44;100768.63;5063510;27;45460;-70
2023/04/24 09:49:27;;;;;;;;;16.75;14.00;;;;;14.74;53.88;100764.25;5060920;27;45384;-69
2023/04/24 09:52:08;;;;;;;;;19.50;16.50;;;;;14.78;53.41;100773.88;5058833;27;45797;-69
2023/04/24 09:54:36;;;;;;;;;15.50;12.50;;;;;14.75;53.02;100755.44;5072194;27;45495;-69
2023/04/24 09:57:02;;;;;;;;;15.50;13.50;;;;;14.73;53.71;100748.44;5091663;27;48005;-68
2023/04/24 09:59:27;;;;;;;;;16.75;14.50;;;;;14.77;53.27;100758.94;5084243;27;45461;-67
2023/04/24 10:01:53;;;;;;;;;18.25;16.25;;;;;14.70;53.33;100754.63;5072883;27;45406;-72
2023/04/24 10:04:24;;;;;;;;;14.75;12.25;;;;;14.69;54.28;100759.94;5069838;27;45384;-68
2023/04/24 10:06:51;;;;;;;;;17.00;14.25;;;;;14.79;53.18;100770.31;5086784;27;46326;-69
2023/04/24 10:09:19;;;;;;;;;24.25;18.75;;;;;14.81;53.23;100755.34;5056160;27;45660;-69
2023/04/24 10:11:47;;;;;;;;;17.00;13.50;;;;;14.96;52.68;100758.66;5067382;27;45500;-69
2023/04/24 10:14:20;;;;;;;;;15.50;13.25;;;;;15.19;52.08;100759.16;5058097;27;45425;-69
2023/04/24 10:16:49;;;;;;;;;16.67;12.67;;;;;15.42;51.89;100763.16;5065403;27;45468;-69
2023/04/24 10:19:18;;;;;;;;;12.00;10.33;;;;;15.60;51.50;100762.84;5060462;27;45429;-68
2023/04/24 10:21:47;;;;;;;;;17.00;13.75;;;;;15.71;51.07;100762.69;5071656;27;45421;-70
2023/04/24 10:24:15;;;;;;;;;16.33;12.00;;;;;15.77;50.46;100765.19;5056532;27;45398;-69
2023/04/24 10:26:41;;;;;;;;;15.33;13.00;;;;;15.74;50.35;100756.47;5055685;27;45909;-69
2023/04/24 10:29:09;;;;;;;;;18.50;13.25;;;;;15.87;50.19;100757.94;5061364;27;45350;-69
2023/04/24 10:31:37;;;;;;;;;16.33;12.67;;;;;15.94;49.62;100749.00;5066740;27;45630;-68
2023/04/24 10:34:04;;;;;;;;;14.25;13.25;;;;;16.08;49.75;100765.44;5068124;27;45404;-70
2023/04/24 10:36:32;;;;;;;;;19.33;16.67;;;;;16.09;49.10;100764.56;5078655;27;45543;-68
2023/04/24 10:39:00;;;;;;;;;17.00;14.67;;;;;16.05;48.96;100752.31;5075348;27;45630;-69
2023/04/24 10:41:26;;;;;;;;;17.67;16.33;;;;;16.08;48.32;100765.44;5059975;27;45528;-69
2023/04/24 10:44:09;;;;;;;;;16.67;14.00;;;;;16.07;48.78;100766.38;5060549;27;45413;-69
2023/04/24 10:46:36;;;;;;;;;21.67;13.33;;;;;16.22;48.42;100765.16;5076020;28;46336;-68
2023/04/24 10:49:07;;;;;;;;;20.33;17.33;;;;;16.21;47.65;100744.09;5073999;28;45497;-69
2023/04/24 10:51:47;;;;;;;;;13.67;13.67;;;;;16.23;47.97;100755.47;5092365;27;45431;-69
2023/04/24 10:54:41;;;;;;;;;17.67;12.33;;;;;16.01;48.30;100766.47;5059746;27;45475;-68
2023/04/24 10:57:19;;;;;;;;;18.67;13.67;;;;;15.82;48.81;100770.38;5058974;27;46172;-68
2023/04/24 10:59:46;;;;;;;;;14.67;12.00;;;;;15.72;48.99;100766.19;5059507;27;45468;-69
2023/04/24 11:02:17;;;;;;;;;17.00;12.33;;;;;15.61;49.26;100750.50;5073037;27;45428;-69
2023/04/24 11:04:44;;;;;;;;;18.33;13.00;;;;;15.62;49.50;100747.84;5055119;27;46598;-70
2023/04/24 11:07:10;;;;;;;;;13.33;10.67;;;;;15.81;49.09;100751.03;5091178;27;47059;-68
2023/04/24 11:09:37;;;;;;;;;13.67;11.33;;;;;15.92;49.00;100744.66;5088121;27;45280;-69
2023/04/24 11:12:08;;;;;;;;;14.33;10.67;;;;;15.86;48.31;100722.75;5055228;27;45421;-69
2023/04/24 11:14:56;;;;;;;;;13.00;10.67;;;;;16.28;47.87;100753.63;5054159;27;45512;-69
2023/04/24 11:17:37;;;;;;;;;10.33;10.33;;;;;16.46;47.42;100749.69;5054009;27;46923;-68